createdAt,value
2022-09-21T00:01:08.266Z,101972.63
2022-09-21T00:03:35.968Z,101969.06
2022-09-21T00:06:05.819Z,101974.22
2022-09-21T00:08:33.373Z,101984.75
2022-09-21T00:11:01.162Z,101970.03
2022-09-21T00:13:29.153Z,101966.44
2022-09-21T00:15:56.825Z,101974.31
2022-09-21T00:18:24.820Z,101972.72
2022-09-21T00:20:52.799Z,101981.28
2022-09-21T00:23:22.019Z,101978.81
2022-09-21T00:25:49.510Z,101980.53
2022-09-21T00:28:17.189Z,101983.38
2022-09-21T00:30:44.699Z,101981.59
2022-09-21T00:33:12.206Z,101977.19
2022-09-21T00:35:40.199Z,101983.25
2022-09-21T00:38:07.730Z,101984.13
2022-09-21T00:40:36.600Z,101986.75
2022-09-21T00:43:14.979Z,101983.28
2022-09-21T00:45:42.998Z,101979.00
2022-09-21T00:48:55.114Z,101984.28
2022-09-21T00:51:22.875Z,101981.78
2022-09-21T00:53:54.055Z,101980.06
2022-09-21T00:56:21.583Z,101982.59
2022-09-21T00:58:51.563Z,101990.47
2022-09-21T01:01:19.274Z,101986.19
2022-09-21T01:03:47.426Z,101984.47
2022-09-21T01:06:18.162Z,101985.31
2022-09-21T01:08:47.846Z,101987.91
2022-09-21T01:11:28.973Z,101992.34
2022-09-21T01:14:13.391Z,101985.38
2022-09-21T01:16:46.193Z,101987.94
2022-09-21T01:19:28.080Z,101982.78
2022-09-21T01:22:03.942Z,101980.22
2022-09-21T01:24:45.078Z,101987.13
2022-09-21T01:27:36.596Z,101987.22
2022-09-21T01:30:07.089Z,101989.84
2022-09-21T01:32:38.664Z,101985.44
2022-09-21T01:35:10.126Z,101983.59
2022-09-21T01:37:40.180Z,101987.19
2022-09-21T01:40:11.069Z,101982.06
2022-09-21T01:42:40.271Z,101985.53
2022-09-21T01:45:10.651Z,101980.25
2022-09-21T01:47:38.863Z,101987.16
2022-09-21T01:50:09.590Z,101988.88
2022-09-21T01:52:39.081Z,101978.53
2022-09-21T01:55:10.329Z,101984.63
2022-09-21T01:57:43.235Z,101988.16
2022-09-21T02:00:13.496Z,101987.31
2022-09-21T02:02:44.798Z,101988.19
2022-09-21T02:05:13.530Z,101983.84
2022-09-21T02:07:41.074Z,101986.34
2022-09-21T02:10:09.779Z,101985.41
2022-09-21T02:12:38.463Z,101991.41
2022-09-21T02:15:06.732Z,101988.06
2022-09-21T02:17:40.062Z,101983.78
2022-09-21T02:20:17.492Z,101982.97
2022-09-21T02:22:54.822Z,101984.69
2022-09-21T02:25:26.555Z,101987.34
2022-09-21T02:27:57.468Z,101983.97
2022-09-21T02:30:26.152Z,101990.97
2022-09-21T02:33:00.356Z,101986.56
2022-09-21T02:35:33.076Z,101983.91
2022-09-21T02:38:08.174Z,101984.66
2022-09-21T02:40:38.832Z,101985.47
2022-09-21T02:43:10.296Z,101989.03
2022-09-21T02:45:42.892Z,101993.44
2022-09-21T02:48:14.512Z,101992.47
2022-09-21T02:50:45.407Z,101997.75
2022-09-21T02:53:14.666Z,101983.00
2022-09-21T02:55:42.520Z,101989.09
2022-09-21T02:58:11.429Z,101992.59
2022-09-21T03:00:39.218Z,101985.66
2022-09-21T03:03:18.095Z,101984.03
2022-09-21T03:05:46.672Z,101987.47
2022-09-21T03:08:14.187Z,101984.72
2022-09-21T03:10:41.720Z,101989.06
2022-09-21T03:13:10.034Z,101985.72
2022-09-21T03:15:37.786Z,101981.44
2022-09-21T03:18:05.962Z,101982.28
2022-09-21T03:20:35.117Z,101985.75
2022-09-21T03:23:02.687Z,101987.56
2022-09-21T03:25:30.903Z,101984.09
2022-09-21T03:27:59.067Z,101987.56
2022-09-21T03:30:28.081Z,101991.00
2022-09-21T03:32:56.202Z,101988.44
2022-09-21T03:35:25.277Z,101986.59
2022-09-21T03:37:54.955Z,101999.66
2022-09-21T03:40:23.116Z,101996.22
2022-09-21T03:42:50.660Z,101996.09
2022-09-21T03:45:18.436Z,101996.13
2022-09-21T03:47:46.511Z,101999.47
2022-09-21T03:50:14.105Z,102002.25
2022-09-21T03:52:41.983Z,101990.19
2022-09-21T03:55:11.095Z,101994.53
2022-09-21T03:57:39.166Z,101998.00
2022-09-21T04:00:09.239Z,101999.75
2022-09-21T04:02:37.059Z,101998.88
2022-09-21T04:05:06.753Z,101998.00
2022-09-21T04:07:35.710Z,101994.56
2022-09-21T04:10:03.568Z,101998.91
2022-09-21T04:12:32.823Z,101999.59
2022-09-21T04:15:00.317Z,101991.72
2022-09-21T04:17:27.858Z,101998.78
2022-09-21T04:19:55.377Z,101995.28
2022-09-21T04:22:24.775Z,101994.31
2022-09-21T04:24:52.304Z,101997.91
2022-09-21T04:27:19.824Z,101996.22
2022-09-21T04:29:48.948Z,101997.81
2022-09-21T04:32:16.434Z,102004.75
2022-09-21T04:34:44.083Z,101996.06
2022-09-21T04:37:11.814Z,102002.19
2022-09-21T04:39:39.309Z,101997.03
2022-09-21T04:42:07.314Z,102005.72
2022-09-21T04:44:34.818Z,101993.47
2022-09-21T04:47:03.771Z,102001.22
2022-09-21T04:49:31.272Z,102011.78
2022-09-21T04:51:58.791Z,102007.53
2022-09-21T04:54:26.282Z,102009.31
2022-09-21T04:56:53.832Z,102006.69
2022-09-21T04:59:21.330Z,102003.25
2022-09-21T05:01:48.880Z,102003.28
2022-09-21T05:04:17.915Z,102010.25
2022-09-21T05:06:45.402Z,102015.47
2022-09-21T05:09:30.422Z,102015.34
2022-09-21T05:11:57.928Z,102018.88
2022-09-21T05:14:25.502Z,102014.63
2022-09-21T05:16:53.030Z,102019.00
2022-09-21T05:19:22.718Z,102026.78
2022-09-21T05:21:50.203Z,102025.94
2022-09-21T05:24:17.712Z,102025.09
2022-09-21T05:26:45.202Z,102027.69
2022-09-21T05:29:13.331Z,102033.75
2022-09-21T05:31:44.709Z,102033.72
2022-09-21T05:34:39.799Z,102045.00
2022-09-21T05:37:11.648Z,102048.47
2022-09-21T05:39:39.230Z,102044.09
2022-09-21T05:42:07.030Z,102048.41
2022-09-21T05:44:35.115Z,102048.38
2022-09-21T05:47:05.726Z,102050.03
2022-09-21T05:49:45.655Z,102059.50
2022-09-21T05:52:19.024Z,102049.88
2022-09-21T05:54:54.850Z,102060.28
2022-09-21T05:57:31.090Z,102060.28
2022-09-21T06:00:05.266Z,102065.59
2022-09-21T06:02:54.898Z,102062.97
2022-09-21T06:05:24.700Z,102068.06
2022-09-21T06:07:52.234Z,102068.00
2022-09-21T06:10:20.034Z,102074.03
2022-09-21T06:12:47.652Z,102076.50
2022-09-21T06:15:16.421Z,102078.03
2022-09-21T06:17:44.383Z,102079.78
2022-09-21T06:20:11.906Z,102077.00
2022-09-21T06:22:40.772Z,102080.47
2022-09-21T06:25:08.928Z,102075.22
2022-09-21T06:27:36.444Z,102074.28
2022-09-21T06:30:04.281Z,102078.47
2022-09-21T06:32:32.079Z,102087.03
2022-09-21T06:34:59.579Z,102078.25
2022-09-21T06:37:27.094Z,102069.41
2022-09-21T06:39:55.949Z,102074.44
2022-09-21T06:42:23.484Z,102077.72
2022-09-21T06:44:50.980Z,102080.09
2022-09-21T06:47:18.507Z,102084.25
2022-09-21T06:49:45.998Z,102080.31
2022-09-21T06:52:13.507Z,102090.63
2022-09-21T06:54:42.297Z,102083.44
2022-09-21T06:57:11.152Z,102083.22
2022-09-21T06:59:38.678Z,102082.09
2022-09-21T07:02:07.043Z,102083.53
2022-09-21T07:04:34.643Z,102088.41
2022-09-21T07:07:04.488Z,102083.72
2022-09-21T07:12:21.882Z,102086.66
2022-09-21T07:14:49.723Z,102097.72
2022-09-21T07:17:17.344Z,102093.16
2022-09-21T07:20:39.258Z,102091.09
2022-09-21T07:23:11.452Z,102091.72
2022-09-21T07:25:39.758Z,102091.63
2022-09-21T07:28:07.286Z,102099.06
2022-09-21T07:30:34.810Z,102091.00
2022-09-21T07:33:02.348Z,102084.72
2022-09-21T07:35:29.960Z,102083.72
2022-09-21T07:38:00.211Z,102086.19
2022-09-21T07:40:28.488Z,102089.19
2022-09-21T07:42:59.373Z,102089.69
2022-09-21T07:45:27.232Z,102079.78
2022-09-21T07:47:56.500Z,102084.78
2022-09-21T07:50:24.522Z,102082.00
2022-09-21T07:52:52.036Z,102079.06
2022-09-21T07:55:20.933Z,102082.19
2022-09-21T07:58:07.927Z,102074.97
2022-09-21T08:00:35.632Z,102078.63
2022-09-21T08:03:03.347Z,102066.94
2022-09-21T08:05:30.902Z,102064.75
2022-09-21T08:07:58.670Z,102066.28
2022-09-21T08:10:29.899Z,102062.47
2022-09-21T08:12:57.604Z,102065.56
2022-09-21T08:15:47.350Z,102062.88
2022-09-21T08:18:12.779Z,102061.56
2022-09-21T08:20:40.296Z,102061.72
2022-09-21T08:23:07.920Z,102059.81
2022-09-21T08:25:36.802Z,102058.56
2022-09-21T08:28:09.414Z,102063.06
2022-09-21T08:30:37.460Z,102061.47
2022-09-21T08:33:06.907Z,102055.75
2022-09-21T08:35:34.646Z,102052.25
2022-09-21T08:38:02.168Z,102057.28
2022-09-21T08:40:30.307Z,102049.41
2022-09-21T08:43:01.790Z,102061.06
2022-09-21T08:45:33.760Z,102057.09
2022-09-21T08:48:03.875Z,102054.00
2022-09-21T08:50:35.576Z,102055.53
2022-09-21T08:53:06.481Z,102061.09
2022-09-21T08:55:34.372Z,102059.72
2022-09-21T08:58:03.260Z,102065.66
2022-09-21T09:00:34.485Z,102066.38
2022-09-21T09:03:24.234Z,102070.56
2022-09-21T09:05:56.631Z,102078.16
2022-09-21T09:08:47.260Z,102081.09
2022-09-21T09:11:24.234Z,102072.84
2022-09-21T09:14:05.265Z,102076.34
2022-09-21T09:16:38.618Z,102081.16
2022-09-21T09:19:13.104Z,102073.47
2022-09-21T09:21:41.946Z,102069.41
2022-09-21T09:24:12.533Z,102078.94
2022-09-21T09:26:44.955Z,102073.53
2022-09-21T09:29:19.408Z,102072.88
2022-09-21T09:31:47.460Z,102068.38
2022-09-21T09:34:17.510Z,102072.03
2022-09-21T09:36:58.222Z,102076.97
2022-09-21T09:39:26.738Z,102076.41
2022-09-21T09:42:17.643Z,102069.50
2022-09-21T09:45:11.706Z,102073.13
2022-09-21T09:47:48.434Z,102074.19
2022-09-21T09:50:21.680Z,102073.84
2022-09-21T09:52:50.759Z,102070.22
2022-09-21T09:55:20.164Z,102067.34
2022-09-21T09:57:48.789Z,102067.19
2022-09-21T10:00:19.796Z,102068.28
2022-09-21T10:02:49.377Z,102068.09
2022-09-21T10:05:22.743Z,102067.88
2022-09-21T10:07:50.708Z,102072.19
2022-09-21T10:10:30.946Z,102063.31
2022-09-21T10:13:04.249Z,102060.63
2022-09-21T10:15:33.359Z,102059.00
2022-09-21T10:18:16.628Z,102057.31
2022-09-21T10:20:55.110Z,102056.44
2022-09-21T10:23:23.668Z,102052.13
2022-09-21T10:25:56.112Z,102061.19
2022-09-21T10:28:24.377Z,102057.59
2022-09-21T10:31:09.965Z,102046.69
2022-09-21T10:33:47.763Z,102054.31
2022-09-21T10:36:27.874Z,102049.34
2022-09-21T10:38:55.663Z,102054.28
2022-09-21T10:41:23.478Z,102054.25
2022-09-21T10:43:51.727Z,102061.53
2022-09-21T10:46:33.864Z,102047.63
2022-09-21T10:49:02.023Z,102046.69
2022-09-21T10:51:30.974Z,102044.72
2022-09-21T10:53:58.646Z,102031.41
2022-09-21T10:56:26.863Z,102047.44
2022-09-21T10:59:21.174Z,102040.72
2022-09-21T11:01:51.452Z,102045.03
2022-09-21T11:04:25.018Z,102036.31
2022-09-21T11:06:55.987Z,102032.91
2022-09-21T11:09:26.335Z,102035.91
2022-09-21T11:11:58.092Z,102046.22
2022-09-21T11:14:42.482Z,102035.13
2022-09-21T11:17:14.893Z,102038.81
2022-09-21T11:19:45.459Z,102044.34
2022-09-21T11:22:16.538Z,102041.50
2022-09-21T11:24:49.428Z,102043.88
2022-09-21T11:27:20.759Z,102034.97
2022-09-21T11:29:56.524Z,102037.97
2022-09-21T11:32:38.192Z,102043.13
2022-09-21T11:35:35.008Z,102042.25
2022-09-21T11:38:06.646Z,102036.28
2022-09-21T11:40:43.171Z,102028.94
2022-09-21T11:43:23.573Z,102023.06
2022-09-21T11:45:58.866Z,102033.13
2022-09-21T11:48:37.899Z,102023.25
2022-09-21T11:51:14.937Z,102019.69
2022-09-21T11:53:53.575Z,102019.66
2022-09-21T11:56:43.655Z,102022.31
2022-09-21T11:59:29.156Z,102010.06
2022-09-21T12:02:17.445Z,102010.41
2022-09-21T12:04:50.216Z,102007.66
2022-09-21T12:07:31.203Z,102006.75
2022-09-21T12:10:11.046Z,102003.19
2022-09-21T12:12:42.495Z,102002.94
2022-09-21T12:15:13.993Z,101988.59
2022-09-21T12:17:49.462Z,101988.34
2022-09-21T12:20:36.068Z,101989.63
2022-09-21T12:23:08.948Z,101995.25
2022-09-21T12:25:40.786Z,101997.88
2022-09-21T12:28:13.490Z,101980.81
2022-09-21T12:30:44.235Z,101984.31
2022-09-21T12:33:17.704Z,101985.00
2022-09-21T12:35:48.861Z,101989.38
2022-09-21T12:38:24.507Z,101983.25
2022-09-21T12:40:54.717Z,101981.94
2022-09-21T12:43:29.634Z,101979.06
2022-09-21T12:46:00.026Z,101970.09
2022-09-21T12:48:33.080Z,101968.66
2022-09-21T12:51:06.716Z,101966.66
2022-09-21T12:53:37.614Z,101965.66
2022-09-21T12:56:10.014Z,101969.50
2022-09-21T12:58:58.584Z,101966.16
2022-09-21T13:01:32.236Z,101954.88
2022-09-21T13:04:13.299Z,101963.84
2022-09-21T13:07:17.010Z,101962.78
2022-09-21T13:09:45.995Z,101956.59
2022-09-21T13:12:17.874Z,101952.47
2022-09-21T13:14:47.686Z,101957.75
2022-09-21T13:17:22.178Z,101948.91
2022-09-21T13:19:58.562Z,101944.88
2022-09-21T13:22:28.525Z,101950.63
2022-09-21T13:25:02.944Z,101934.41
2022-09-21T13:28:00.462Z,101935.94
2022-09-21T13:30:42.484Z,101942.38
2022-09-21T13:33:32.197Z,101944.50
2022-09-21T13:36:19.879Z,101946.66
2022-09-21T13:39:15.599Z,101936.09
2022-09-21T13:42:02.349Z,101926.03
2022-09-21T13:44:48.535Z,101937.00
2022-09-21T13:47:29.267Z,101922.41
2022-09-21T13:50:00.522Z,101931.03
2022-09-21T13:52:40.240Z,101933.50
2022-09-21T13:55:25.185Z,101928.69
2022-09-21T13:57:56.071Z,101928.31
2022-09-21T14:00:33.660Z,101912.81
2022-09-21T14:03:04.599Z,101919.38
2022-09-21T14:05:36.260Z,101910.91
2022-09-21T14:08:06.727Z,101921.59
2022-09-21T14:10:37.230Z,101916.94
2022-09-21T14:13:10.400Z,101913.31
2022-09-21T14:15:40.316Z,101915.44
2022-09-21T14:18:47.484Z,101910.75
2022-09-21T14:21:18.354Z,101908.19
2022-09-21T14:24:20.958Z,101911.78
2022-09-21T14:26:56.467Z,101895.44
2022-09-21T14:29:26.742Z,101900.09
2022-09-21T14:31:56.037Z,101901.81
2022-09-21T14:34:27.067Z,101896.63
2022-09-21T14:36:57.409Z,101893.66
2022-09-21T14:39:27.467Z,101885.97
2022-09-21T14:41:58.697Z,101879.47
2022-09-21T14:44:29.868Z,101879.06
2022-09-21T14:47:28.582Z,101882.47
2022-09-21T14:50:26.399Z,101866.91
2022-09-21T14:53:09.747Z,101870.09
2022-09-21T14:55:51.630Z,101874.31
2022-09-21T14:58:31.282Z,101863.28
2022-09-21T15:01:21.025Z,101867.09
2022-09-21T15:04:01.836Z,101869.34
2022-09-21T15:06:51.876Z,101872.19
2022-09-21T15:10:03.616Z,101859.84
2022-09-21T15:12:38.132Z,101870.28
2022-09-21T15:15:22.891Z,101853.47
2022-09-21T15:17:59.287Z,101856.91
2022-09-21T15:20:29.400Z,101853.38
2022-09-21T15:22:57.323Z,101854.03
2022-09-21T15:25:26.267Z,101855.84
2022-09-21T15:27:53.770Z,101846.88
2022-09-21T15:30:24.294Z,101857.66
2022-09-21T15:32:54.060Z,101860.16
2022-09-21T15:35:23.136Z,101854.13
2022-09-21T15:37:52.035Z,101845.94
2022-09-21T15:40:22.761Z,101839.03
2022-09-21T15:43:00.798Z,101846.47
2022-09-21T15:45:33.827Z,101841.13
2022-09-21T15:48:01.996Z,101837.31
2022-09-21T15:50:30.296Z,101838.19
2022-09-21T15:53:01.353Z,101839.00
2022-09-21T15:55:30.233Z,101836.84
2022-09-21T15:57:58.688Z,101844.06
2022-09-21T16:00:28.292Z,101837.75
2022-09-21T16:03:06.240Z,101826.03
2022-09-21T16:05:45.400Z,101829.78
2022-09-21T16:08:30.151Z,101816.47
2022-09-21T16:11:19.760Z,101828.06
2022-09-21T16:14:05.438Z,101821.34
2022-09-21T16:16:33.246Z,101823.34
2022-09-21T16:19:02.226Z,101818.84
2022-09-21T16:21:32.797Z,101826.19
2022-09-21T16:24:12.280Z,101822.13
2022-09-21T16:26:42.966Z,101822.09
2022-09-21T16:29:23.419Z,101828.13
2022-09-21T16:31:51.421Z,101828.16
2022-09-21T16:34:32.935Z,101820.00
2022-09-21T16:37:02.199Z,101822.84
2022-09-21T16:39:29.696Z,101827.38
2022-09-21T16:41:59.943Z,101830.31
2022-09-21T16:44:31.400Z,101828.34
2022-09-21T16:47:00.436Z,101820.91
2022-09-21T16:49:32.012Z,101823.81
2022-09-21T16:51:59.838Z,101824.69
2022-09-21T16:54:27.711Z,101835.28
2022-09-21T16:56:57.829Z,101834.91
2022-09-21T16:59:25.770Z,101831.25
2022-09-21T17:01:56.555Z,101822.78
2022-09-21T17:04:25.943Z,101827.16
2022-09-21T17:06:55.403Z,101827.09
2022-09-21T17:09:29.536Z,101832.47
2022-09-21T17:11:59.224Z,101828.28
2022-09-21T17:14:26.790Z,101835.19
2022-09-21T17:16:58.357Z,101836.34
2022-09-21T17:19:26.397Z,101834.34
2022-09-21T17:21:55.344Z,101843.22
2022-09-21T17:24:39.233Z,101843.13
2022-09-21T17:27:10.536Z,101844.03
2022-09-21T17:29:40.114Z,101849.06
2022-09-21T17:32:11.253Z,101843.84
2022-09-21T17:34:38.772Z,101855.28
2022-09-21T17:37:09.749Z,101854.13
2022-09-21T17:39:37.303Z,101850.25
2022-09-21T17:42:13.367Z,101862.88
2022-09-21T17:44:53.015Z,101858.31
2022-09-21T17:47:22.023Z,101855.66
2022-09-21T17:49:50.027Z,101853.84
2022-09-21T17:52:37.912Z,101856.06
2022-09-21T17:55:08.304Z,101852.25
2022-09-21T17:57:47.430Z,101857.72
2022-09-21T18:00:20.591Z,101859.13
2022-09-21T18:02:48.685Z,101861.16
2022-09-21T18:05:22.728Z,101862.44
2022-09-21T18:07:52.364Z,101857.59
2022-09-21T18:10:21.235Z,101859.41
2022-09-21T18:13:11.735Z,101865.88
2022-09-21T18:15:48.876Z,101868.81
2022-09-21T18:18:20.666Z,101874.72
2022-09-21T18:20:57.711Z,101874.81
2022-09-21T18:23:36.028Z,101873.38
2022-09-21T18:26:04.379Z,101871.09
2022-09-21T18:28:40.179Z,101875.31
2022-09-21T18:31:24.260Z,101873.59
2022-09-21T18:33:57.314Z,101874.59
2022-09-21T18:36:28.875Z,101872.34
2022-09-21T18:39:06.762Z,101864.09
2022-09-21T18:41:39.151Z,101875.66
2022-09-21T18:44:14.199Z,101878.34
2022-09-21T18:46:51.483Z,101877.78
2022-09-21T18:49:29.325Z,101880.50
2022-09-21T18:52:01.482Z,101874.72
2022-09-21T18:54:30.812Z,101880.44
2022-09-21T18:56:59.128Z,101881.63
2022-09-21T18:59:31.725Z,101881.97
2022-09-21T19:02:00.299Z,101885.59
2022-09-21T19:04:29.016Z,101887.09
2022-09-21T19:07:01.608Z,101889.44
2022-09-21T19:09:38.023Z,101885.34
2022-09-21T19:12:14.412Z,101894.13
2022-09-21T19:14:48.690Z,101883.34
2022-09-21T19:17:25.502Z,101886.28
2022-09-21T19:20:04.488Z,101885.50
2022-09-21T19:22:38.757Z,101895.72
2022-09-21T19:25:12.886Z,101884.56
2022-09-21T19:27:44.498Z,101895.22
2022-09-21T19:30:13.522Z,101890.00
2022-09-21T19:32:45.317Z,101892.34
2022-09-21T19:35:23.777Z,101895.75
2022-09-21T19:37:52.855Z,101892.22
2022-09-21T19:40:23.791Z,101894.28
2022-09-21T19:43:10.062Z,101894.59
2022-09-21T19:45:47.294Z,101896.66
2022-09-21T19:48:16.085Z,101889.03
2022-09-21T19:50:47.590Z,101893.53
2022-09-21T19:53:33.541Z,101896.19
2022-09-21T19:56:20.558Z,101894.69
2022-09-21T19:59:05.867Z,101891.16
2022-09-21T20:01:36.641Z,101895.69
2022-09-21T20:04:05.144Z,101902.94
2022-09-21T20:06:36.199Z,101904.91
2022-09-21T20:09:09.847Z,101897.84
2022-09-21T20:11:44.543Z,101902.25
2022-09-21T20:14:21.452Z,101907.56
2022-09-21T20:16:50.932Z,101907.69
2022-09-21T20:19:38.895Z,101906.03
2022-09-21T20:22:12.749Z,101909.13
2022-09-21T20:24:45.479Z,101909.06
2022-09-21T20:27:30.239Z,101910.09
2022-09-21T20:29:57.716Z,101910.31
2022-09-21T20:32:25.315Z,101908.03
2022-09-21T20:34:52.799Z,101908.94
2022-09-21T20:37:21.027Z,101913.34
2022-09-21T20:39:48.547Z,101910.28
2022-09-21T20:42:20.231Z,101911.88
2022-09-21T20:44:47.730Z,101915.00
2022-09-21T20:47:15.283Z,101908.22
2022-09-21T20:49:42.799Z,101911.88
2022-09-21T20:52:11.192Z,101906.88
2022-09-21T20:54:38.689Z,101905.38
2022-09-21T20:57:06.295Z,101911.31
2022-09-21T20:59:35.155Z,101905.78
2022-09-21T21:02:02.764Z,101904.78
2022-09-21T21:04:30.351Z,101906.63
2022-09-21T21:06:57.880Z,101908.47
2022-09-21T21:09:25.406Z,101904.13
2022-09-21T21:11:53.112Z,101905.09
2022-09-21T21:14:20.704Z,101896.59
2022-09-21T21:16:49.588Z,101893.47
2022-09-21T21:19:17.503Z,101899.03
2022-09-21T21:21:45.412Z,101901.00
2022-09-21T21:24:31.128Z,101904.38
2022-09-21T21:27:02.283Z,101900.47
2022-09-21T21:29:30.420Z,101907.28
2022-09-21T21:31:59.940Z,101910.66
2022-09-21T21:34:27.543Z,101900.41
2022-09-21T21:36:55.174Z,101906.66
2022-09-21T21:39:22.691Z,101902.16
2022-09-21T21:41:50.251Z,101905.72
2022-09-21T21:44:17.772Z,101899.13
2022-09-21T21:46:45.256Z,101900.78
2022-09-21T21:49:14.219Z,101898.81
2022-09-21T21:51:41.771Z,101905.03
2022-09-21T21:54:09.423Z,101898.22
2022-09-21T21:56:36.960Z,101892.25
2022-09-21T21:59:04.910Z,101891.50
2022-09-21T22:01:32.464Z,101899.03
2022-09-21T22:04:02.138Z,101901.66
2022-09-21T22:06:32.931Z,101895.63
2022-09-21T22:09:00.663Z,101886.03
2022-09-21T22:11:28.997Z,101893.00
2022-09-21T22:13:57.766Z,101882.41
2022-09-21T22:16:27.576Z,101893.59
2022-09-21T22:18:56.071Z,101892.91
2022-09-21T22:21:25.083Z,101889.59
2022-09-21T22:23:54.831Z,101887.00
2022-09-21T22:26:22.836Z,101894.75
2022-09-21T22:28:52.122Z,101891.31
2022-09-21T22:31:21.254Z,101889.75
2022-09-21T22:33:49.804Z,101887.28
2022-09-21T22:36:19.480Z,101890.78
2022-09-21T22:38:47.614Z,101894.19
2022-09-21T22:41:18.225Z,101884.56
2022-09-21T22:43:46.316Z,101887.25
2022-09-21T22:46:14.292Z,101886.44
2022-09-21T22:48:41.836Z,101894.31
2022-09-21T22:51:10.887Z,101896.03
2022-09-21T22:53:38.408Z,101894.25
2022-09-21T22:56:07.762Z,101894.31
2022-09-21T22:58:38.420Z,101891.69
2022-09-21T23:01:07.206Z,101893.34
2022-09-21T23:03:35.433Z,101889.91
2022-09-21T23:06:03.192Z,101892.53
2022-09-21T23:08:31.262Z,101882.97
2022-09-21T23:11:08.284Z,101885.56
2022-09-21T23:13:37.187Z,101877.09
2022-09-21T23:16:05.986Z,101881.66
2022-09-21T23:18:34.178Z,101887.81
2022-09-21T23:21:03.823Z,101886.75
2022-09-21T23:23:31.331Z,101885.94
2022-09-21T23:26:03.397Z,101883.69
2022-09-21T23:28:30.922Z,101875.13
2022-09-21T23:32:20.679Z,101884.66
2022-09-21T23:34:48.337Z,101886.22
2022-09-21T23:37:15.923Z,101878.41
2022-09-21T23:39:43.440Z,101879.47
2022-09-21T23:42:10.986Z,101873.50
2022-09-21T23:44:38.490Z,101874.50
2022-09-21T23:47:06.174Z,101876.94
2022-09-21T23:49:35.113Z,101881.25
2022-09-21T23:52:03.327Z,101874.25
2022-09-21T23:54:30.846Z,101877.78
2022-09-21T23:56:58.368Z,101878.03
2022-09-21T23:59:25.875Z,101873.03
